sensor_id;sensor_type;location;lat;lon;timestamp;pressure;altitude;pressure_sealevel;temperature;humidity
36454;BME280;22478;51.740;-1.314;2023-04-28T00:00:18;99489.81;;;8.35;100.00
36454;BME280;22478;51.740;-1.314;2023-04-28T00:02:45;99491.66;;;8.22;100.00
36454;BME280;22478;51.740;-1.314;2023-04-28T00:05:13;99492.84;;;7.47;100.00
36454;BME280;22478;51.740;-1.314;2023-04-28T00:07:40;99486.79;;;8.72;100.00
36454;BME280;22478;51.740;-1.314;2023-04-28T00:10:09;99487.25;;;8.20;100.00
36454;BME280;22478;51.740;-1.314;2023-04-28T00:12:36;99484.47;;;7.86;100.00
36454;BME280;22478;51.740;-1.314;2023-04-28T00:15:04;99476.27;;;8.19;100.00
36454;BME280;22478;51.740;-1.314;2023-04-28T00:17:31;99473.94;;;8.07;100.00
36454;BME280;22478;51.740;-1.314;2023-04-28T00:19:59;99471.25;;;8.62;100.00
36454;BME280;22478;51.740;-1.314;2023-04-28T00:22:26;99461.77;;;8.45;100.00
36454;BME280;22478;51.740;-1.314;2023-04-28T00:24:53;99455.57;;;9.09;100.00
36454;BME280;22478;51.740;-1.314;2023-04-28T00:27:20;99454.13;;;9.40;100.00
36454;BME280;22478;51.740;-1.314;2023-04-28T00:29:47;99452.85;;;9.51;100.00
36454;BME280;22478;51.740;-1.314;2023-04-28T00:32:14;99454.28;;;9.67;100.00
36454;BME280;22478;51.740;-1.314;2023-04-28T00:34:41;99448.07;;;8.85;100.00
36454;BME280;22478;51.740;-1.314;2023-04-28T00:37:09;99445.41;;;9.71;100.00
36454;BME280;22478;51.740;-1.314;2023-04-28T00:39:36;99446.41;;;8.71;100.00
36454;BME280;22478;51.740;-1.314;2023-04-28T00:42:04;99449.45;;;9.20;100.00
36454;BME280;22478;51.740;-1.314;2023-04-28T00:44:31;99448.63;;;9.55;100.00
36454;BME280;22478;51.740;-1.314;2023-04-28T00:46:58;99448.43;;;9.06;100.00
36454;BME280;22478;51.740;-1.314;2023-04-28T00:49:26;99447.77;;;9.06;100.00
36454;BME280;22478;51.740;-1.314;2023-04-28T00:51:53;99447.14;;;8.98;100.00
36454;BME280;22478;51.740;-1.314;2023-04-28T00:54:20;99445.43;;;9.30;100.00
36454;BME280;22478;51.740;-1.314;2023-04-28T00:56:47;99446.01;;;8.62;100.00
36454;BME280;22478;51.740;-1.314;2023-04-28T00:59:15;99443.86;;;9.40;100.00
36454;BME280;22478;51.740;-1.314;2023-04-28T01:01:43;99444.56;;;10.29;100.00
36454;BME280;22478;51.740;-1.314;2023-04-28T01:04:10;99446.04;;;9.44;100.00
36454;BME280;22478;51.740;-1.314;2023-04-28T01:06:37;99444.90;;;10.05;100.00
36454;BME280;22478;51.740;-1.314;2023-04-28T01:09:05;99442.11;;;9.84;100.00
36454;BME280;22478;51.740;-1.314;2023-04-28T01:11:32;99445.77;;;10.00;100.00
36454;BME280;22478;51.740;-1.314;2023-04-28T01:13:59;99443.80;;;9.56;100.00
36454;BME280;22478;51.740;-1.314;2023-04-28T01:16:27;99438.76;;;10.57;100.00
36454;BME280;22478;51.740;-1.314;2023-04-28T01:18:54;99439.10;;;9.54;100.00
36454;BME280;22478;51.740;-1.314;2023-04-28T01:21:25;99433.31;;;9.77;100.00
36454;BME280;22478;51.740;-1.314;2023-04-28T01:23:52;99432.58;;;10.35;100.00
36454;BME280;22478;51.740;-1.314;2023-04-28T01:26:20;99437.26;;;9.77;100.00
36454;BME280;22478;51.740;-1.314;2023-04-28T01:28:46;99436.97;;;9.63;100.00
36454;BME280;22478;51.740;-1.314;2023-04-28T01:31:14;99436.36;;;9.20;100.00
36454;BME280;22478;51.740;-1.314;2023-04-28T01:33:41;99435.57;;;9.17;100.00
36454;BME280;22478;51.740;-1.314;2023-04-28T01:36:09;99433.87;;;9.91;100.00
36454;BME280;22478;51.740;-1.314;2023-04-28T01:38:36;99436.13;;;8.61;100.00
36454;BME280;22478;51.740;-1.314;2023-04-28T01:41:04;99434.20;;;8.11;100.00
36454;BME280;22478;51.740;-1.314;2023-04-28T01:43:31;99423.56;;;9.80;100.00
36454;BME280;22478;51.740;-1.314;2023-04-28T01:45:59;99424.39;;;9.80;100.00
36454;BME280;22478;51.740;-1.314;2023-04-28T01:48:26;99431.47;;;10.23;100.00
36454;BME280;22478;51.740;-1.314;2023-04-28T01:50:53;99435.17;;;8.71;100.00
36454;BME280;22478;51.740;-1.314;2023-04-28T01:53:21;99427.61;;;10.62;100.00
36454;BME280;22478;51.740;-1.314;2023-04-28T01:55:47;99425.99;;;9.94;100.00
36454;BME280;22478;51.740;-1.314;2023-04-28T01:58:15;99425.76;;;10.03;100.00
36454;BME280;22478;51.740;-1.314;2023-04-28T02:00:42;99429.29;;;10.38;100.00
36454;BME280;22478;51.740;-1.314;2023-04-28T02:03:10;99429.25;;;10.81;100.00
36454;BME280;22478;51.740;-1.314;2023-04-28T02:05:37;99426.53;;;10.14;100.00
36454;BME280;22478;51.740;-1.314;2023-04-28T02:08:04;99425.48;;;10.58;100.00
36454;BME280;22478;51.740;-1.314;2023-04-28T02:10:32;99428.40;;;10.60;100.00
36454;BME280;22478;51.740;-1.314;2023-04-28T02:12:59;99426.72;;;11.14;100.00
36454;BME280;22478;51.740;-1.314;2023-04-28T02:15:26;99430.79;;;9.53;100.00
36454;BME280;22478;51.740;-1.314;2023-04-28T02:17:53;99438.11;;;8.89;100.00
36454;BME280;22478;51.740;-1.314;2023-04-28T02:20:20;99436.88;;;8.97;100.00
36454;BME280;22478;51.740;-1.314;2023-04-28T02:22:47;99440.99;;;8.67;100.00
36454;BME280;22478;51.740;-1.314;2023-04-28T02:25:15;99443.83;;;7.63;100.00
36454;BME280;22478;51.740;-1.314;2023-04-28T02:27:42;99445.53;;;9.50;100.00
36454;BME280;22478;51.740;-1.314;2023-04-28T02:30:10;99444.80;;;7.14;100.00
36454;BME280;22478;51.740;-1.314;2023-04-28T02:32:37;99446.95;;;7.06;100.00
36454;BME280;22478;51.740;-1.314;2023-04-28T02:35:05;99445.52;;;9.48;100.00
36454;BME280;22478;51.740;-1.314;2023-04-28T02:37:33;99447.47;;;8.60;100.00
36454;BME280;22478;51.740;-1.314;2023-04-28T02:40:00;99451.88;;;8.64;100.00
36454;BME280;22478;51.740;-1.314;2023-04-28T02:42:28;99453.99;;;8.44;100.00
36454;BME280;22478;51.740;-1.314;2023-04-28T02:44:55;99450.54;;;10.55;100.00
36454;BME280;22478;51.740;-1.314;2023-04-28T02:47:22;99448.46;;;9.66;100.00
36454;BME280;22478;51.740;-1.314;2023-04-28T02:49:50;99449.21;;;9.86;100.00
36454;BME280;22478;51.740;-1.314;2023-04-28T02:52:17;99452.96;;;8.28;100.00
36454;BME280;22478;51.740;-1.314;2023-04-28T02:54:44;99453.28;;;7.62;100.00
36454;BME280;22478;51.740;-1.314;2023-04-28T02:57:11;99454.49;;;8.02;100.00
36454;BME280;22478;51.740;-1.314;2023-04-28T02:59:38;99449.61;;;9.50;100.00
36454;BME280;22478;51.740;-1.314;2023-04-28T03:02:06;99449.10;;;9.89;100.00
36454;BME280;22478;51.740;-1.314;2023-04-28T03:04:33;99450.14;;;10.91;100.00
36454;BME280;22478;51.740;-1.314;2023-04-28T03:07:00;99461.17;;;7.23;100.00
36454;BME280;22478;51.740;-1.314;2023-04-28T03:09:28;99458.62;;;8.67;100.00
36454;BME280;22478;51.740;-1.314;2023-04-28T03:11:55;99459.01;;;9.18;100.00
36454;BME280;22478;51.740;-1.314;2023-04-28T03:14:22;99460.93;;;10.03;100.00
36454;BME280;22478;51.740;-1.314;2023-04-28T03:16:49;99464.78;;;9.25;100.00
36454;BME280;22478;51.740;-1.314;2023-04-28T03:19:17;99458.52;;;11.15;100.00
36454;BME280;22478;51.740;-1.314;2023-04-28T03:21:44;99460.50;;;9.66;100.00
36454;BME280;22478;51.740;-1.314;2023-04-28T03:24:11;99458.28;;;9.91;100.00
36454;BME280;22478;51.740;-1.314;2023-04-28T03:26:38;99461.29;;;10.14;100.00
36454;BME280;22478;51.740;-1.314;2023-04-28T03:29:05;99460.99;;;10.20;100.00
36454;BME280;22478;51.740;-1.314;2023-04-28T03:31:32;99464.67;;;10.20;100.00
36454;BME280;22478;51.740;-1.314;2023-04-28T03:33:59;99465.48;;;10.46;100.00
36454;BME280;22478;51.740;-1.314;2023-04-28T03:36:26;99461.67;;;11.48;100.00
36454;BME280;22478;51.740;-1.314;2023-04-28T03:38:54;99472.11;;;7.93;100.00
36454;BME280;22478;51.740;-1.314;2023-04-28T03:41:21;99471.86;;;7.69;100.00
36454;BME280;22478;51.740;-1.314;2023-04-28T03:43:48;99478.11;;;5.64;100.00
36454;BME280;22478;51.740;-1.314;2023-04-28T03:46:16;99477.94;;;6.28;100.00
36454;BME280;22478;51.740;-1.314;2023-04-28T03:48:43;99465.10;;;8.56;100.00
36454;BME280;22478;51.740;-1.314;2023-04-28T03:51:10;99472.81;;;7.04;100.00
36454;BME280;22478;51.740;-1.314;2023-04-28T03:53:37;99465.82;;;8.44;100.00
36454;BME280;22478;51.740;-1.314;2023-04-28T03:56:05;99463.27;;;8.52;100.00
36454;BME280;22478;51.740;-1.314;2023-04-28T03:58:33;99481.30;;;6.03;100.00
36454;BME280;22478;51.740;-1.314;2023-04-28T04:01:00;99476.37;;;7.02;100.00
36454;BME280;22478;51.740;-1.314;2023-04-28T04:03:27;99485.81;;;7.08;100.00
36454;BME280;22478;51.740;-1.314;2023-04-28T04:05:55;99478.44;;;8.02;100.00
36454;BME280;22478;51.740;-1.314;2023-04-28T04:08:23;99475.01;;;9.65;100.00
36454;BME280;22478;51.740;-1.314;2023-04-28T04:10:50;99473.52;;;9.94;100.00
36454;BME280;22478;51.740;-1.314;2023-04-28T04:13:18;99478.46;;;9.46;100.00
36454;BME280;22478;51.740;-1.314;2023-04-28T04:15:45;99477.15;;;10.06;100.00
36454;BME280;22478;51.740;-1.314;2023-04-28T04:18:11;99472.26;;;11.18;100.00
36454;BME280;22478;51.740;-1.314;2023-04-28T04:20:39;99474.52;;;11.66;100.00
36454;BME280;22478;51.740;-1.314;2023-04-28T04:23:06;99474.27;;;12.00;100.00
36454;BME280;22478;51.740;-1.314;2023-04-28T04:25:33;99477.47;;;10.34;100.00
36454;BME280;22478;51.740;-1.314;2023-04-28T04:28:00;99477.70;;;10.14;100.00
36454;BME280;22478;51.740;-1.314;2023-04-28T04:30:27;99478.15;;;10.55;100.00
36454;BME280;22478;51.740;-1.314;2023-04-28T04:32:55;99479.93;;;11.08;100.00
36454;BME280;22478;51.740;-1.314;2023-04-28T04:35:22;99480.95;;;10.03;100.00
36454;BME280;22478;51.740;-1.314;2023-04-28T04:37:49;99483.45;;;11.57;100.00
36454;BME280;22478;51.740;-1.314;2023-04-28T04:40:16;99486.93;;;11.32;100.00
36454;BME280;22478;51.740;-1.314;2023-04-28T04:42:43;99492.04;;;9.92;100.00
36454;BME280;22478;51.740;-1.314;2023-04-28T04:45:10;99487.14;;;11.19;100.00
36454;BME280;22478;51.740;-1.314;2023-04-28T04:47:38;99488.18;;;10.30;100.00
36454;BME280;22478;51.740;-1.314;2023-04-28T04:50:07;99493.30;;;10.47;100.00
36454;BME280;22478;51.740;-1.314;2023-04-28T04:52:35;99495.37;;;10.41;100.00
36454;BME280;22478;51.740;-1.314;2023-04-28T04:55:02;99495.43;;;11.77;100.00
36454;BME280;22478;51.740;-1.314;2023-04-28T04:57:29;99499.26;;;11.58;100.00
36454;BME280;22478;51.740;-1.314;2023-04-28T04:59:57;99502.32;;;10.91;100.00
36454;BME280;22478;51.740;-1.314;2023-04-28T05:02:25;99500.25;;;11.08;100.00
36454;BME280;22478;51.740;-1.314;2023-04-28T05:04:51;99507.96;;;9.17;100.00
36454;BME280;22478;51.740;-1.314;2023-04-28T05:07:19;99509.39;;;9.26;100.00
36454;BME280;22478;51.740;-1.314;2023-04-28T05:09:46;99515.11;;;8.88;100.00
36454;BME280;22478;51.740;-1.314;2023-04-28T05:12:13;99515.35;;;8.06;100.00
36454;BME280;22478;51.740;-1.314;2023-04-28T05:14:41;99507.98;;;9.15;100.00
36454;BME280;22478;51.740;-1.314;2023-04-28T05:17:08;99522.22;;;6.02;100.00
36454;BME280;22478;51.740;-1.314;2023-04-28T05:19:35;99511.20;;;9.57;100.00
36454;BME280;22478;51.740;-1.314;2023-04-28T05:22:02;99518.24;;;8.45;100.00
36454;BME280;22478;51.740;-1.314;2023-04-28T05:24:29;99521.03;;;8.67;100.00
36454;BME280;22478;51.740;-1.314;2023-04-28T05:26:57;99525.44;;;8.49;100.00
36454;BME280;22478;51.740;-1.314;2023-04-28T05:29:25;99535.62;;;7.02;100.00
36454;BME280;22478;51.740;-1.314;2023-04-28T05:31:52;99532.55;;;8.06;100.00
36454;BME280;22478;51.740;-1.314;2023-04-28T05:34:20;99525.63;;;9.33;100.00
36454;BME280;22478;51.740;-1.314;2023-04-28T05:36:48;99527.51;;;9.23;100.00
36454;BME280;22478;51.740;-1.314;2023-04-28T05:39:15;99535.29;;;7.02;100.00
36454;BME280;22478;51.740;-1.314;2023-04-28T05:41:43;99532.26;;;8.08;100.00
36454;BME280;22478;51.740;-1.314;2023-04-28T05:44:10;99535.15;;;7.69;100.00
36454;BME280;22478;51.740;-1.314;2023-04-28T05:46:37;99543.22;;;8.48;100.00
36454;BME280;22478;51.740;-1.314;2023-04-28T05:49:04;99534.12;;;9.50;100.00
36454;BME280;22478;51.740;-1.314;2023-04-28T05:51:31;99544.71;;;6.77;100.00
36454;BME280;22478;51.740;-1.314;2023-04-28T05:53:58;99552.23;;;5.32;100.00
36454;BME280;22478;51.740;-1.314;2023-04-28T05:56:26;99555.70;;;7.99;100.00
36454;BME280;22478;51.740;-1.314;2023-04-28T05:58:53;99557.26;;;7.36;100.00
36454;BME280;22478;51.740;-1.314;2023-04-28T06:01:21;99562.81;;;6.57;100.00
36454;BME280;22478;51.740;-1.314;2023-04-28T06:03:49;99565.94;;;7.93;100.00
36454;BME280;22478;51.740;-1.314;2023-04-28T06:06:16;99568.43;;;7.01;100.00
36454;BME280;22478;51.740;-1.314;2023-04-28T06:08:43;99570.76;;;5.34;100.00
36454;BME280;22478;51.740;-1.314;2023-04-28T06:11:11;99568.67;;;7.16;100.00
36454;BME280;22478;51.740;-1.314;2023-04-28T06:13:38;99579.92;;;5.84;100.00
36454;BME280;22478;51.740;-1.314;2023-04-28T06:16:05;99577.60;;;6.61;100.00
36454;BME280;22478;51.740;-1.314;2023-04-28T06:18:33;99577.15;;;8.01;100.00
36454;BME280;22478;51.740;-1.314;2023-04-28T06:21:00;99575.60;;;6.82;100.00
36454;BME280;22478;51.740;-1.314;2023-04-28T06:23:28;99590.96;;;4.24;100.00
36454;BME280;22478;51.740;-1.314;2023-04-28T06:25:55;99587.92;;;5.41;100.00
36454;BME280;22478;51.740;-1.314;2023-04-28T06:28:22;99590.78;;;6.27;100.00
36454;BME280;22478;51.740;-1.314;2023-04-28T06:30:50;99590.82;;;6.88;100.00
36454;BME280;22478;51.740;-1.314;2023-04-28T06:33:17;99590.99;;;5.94;100.00
36454;BME280;22478;51.740;-1.314;2023-04-28T06:35:44;99604.09;;;5.19;100.00
36454;BME280;22478;51.740;-1.314;2023-04-28T06:38:12;99600.59;;;6.55;100.00
36454;BME280;22478;51.740;-1.314;2023-04-28T06:40:40;99611.83;;;4.61;100.00
36454;BME280;22478;51.740;-1.314;2023-04-28T06:43:07;99619.50;;;5.35;100.00
36454;BME280;22478;51.740;-1.314;2023-04-28T06:45:35;99634.72;;;3.80;100.00
36454;BME280;22478;51.740;-1.314;2023-04-28T06:48:03;99623.01;;;5.52;100.00
36454;BME280;22478;51.740;-1.314;2023-04-28T06:50:30;99634.87;;;4.60;100.00
36454;BME280;22478;51.740;-1.314;2023-04-28T06:52:58;99635.22;;;5.93;100.00
36454;BME280;22478;51.740;-1.314;2023-04-28T06:55:25;99635.18;;;5.23;100.00
36454;BME280;22478;51.740;-1.314;2023-04-28T06:57:53;99644.14;;;5.16;100.00
36454;BME280;22478;51.740;-1.314;2023-04-28T07:00:20;99637.58;;;5.48;100.00
36454;BME280;22478;51.740;-1.314;2023-04-28T07:02:47;99641.64;;;5.22;100.00
36454;BME280;22478;51.740;-1.314;2023-04-28T07:05:14;99641.64;;;5.58;100.00
36454;BME280;22478;51.740;-1.314;2023-04-28T07:07:42;99640.87;;;6.47;100.00
36454;BME280;22478;51.740;-1.314;2023-04-28T07:10:10;99646.57;;;5.53;100.00
36454;BME280;22478;51.740;-1.314;2023-04-28T07:12:37;99647.37;;;6.59;100.00
36454;BME280;22478;51.740;-1.314;2023-04-28T07:15:05;99653.11;;;6.01;100.00
36454;BME280;22478;51.740;-1.314;2023-04-28T07:17:32;99652.61;;;5.32;100.00
36454;BME280;22478;51.740;-1.314;2023-04-28T07:19:59;99667.62;;;3.49;100.00
36454;BME280;22478;51.740;-1.314;2023-04-28T07:22:27;99672.02;;;3.30;100.00
36454;BME280;22478;51.740;-1.314;2023-04-28T07:24:54;99661.58;;;5.69;100.00
36454;BME280;22478;51.740;-1.314;2023-04-28T07:27:21;99665.11;;;5.65;100.00
36454;BME280;22478;51.740;-1.314;2023-04-28T07:29:48;99659.23;;;5.69;100.00
36454;BME280;22478;51.740;-1.314;2023-04-28T07:32:15;99662.41;;;5.34;100.00
36454;BME280;22478;51.740;-1.314;2023-04-28T07:34:42;99662.34;;;4.67;100.00
36454;BME280;22478;51.740;-1.314;2023-04-28T07:37:10;99662.65;;;6.74;100.00
36454;BME280;22478;51.740;-1.314;2023-04-28T07:39:37;99677.02;;;4.86;100.00
36454;BME280;22478;51.740;-1.314;2023-04-28T07:42:05;99681.29;;;5.03;100.00
36454;BME280;22478;51.740;-1.314;2023-04-28T07:44:32;99690.54;;;4.21;100.00
36454;BME280;22478;51.740;-1.314;2023-04-28T07:47:01;99698.79;;;4.23;100.00
36454;BME280;22478;51.740;-1.314;2023-04-28T07:49:29;99690.96;;;5.86;100.00
36454;BME280;22478;51.740;-1.314;2023-04-28T07:51:56;99688.53;;;5.90;100.00
36454;BME280;22478;51.740;-1.314;2023-04-28T07:54:24;99683.17;;;5.45;100.00
36454;BME280;22478;51.740;-1.314;2023-04-28T07:56:51;99694.55;;;4.86;100.00
36454;BME280;22478;51.740;-1.314;2023-04-28T07:59:18;99692.25;;;5.27;100.00
36454;BME280;22478;51.740;-1.314;2023-04-28T08:01:46;99703.98;;;5.05;100.00
36454;BME280;22478;51.740;-1.314;2023-04-28T08:04:13;99713.10;;;5.07;100.00
36454;BME280;22478;51.740;-1.314;2023-04-28T08:06:40;99713.65;;;4.31;100.00
36454;BME280;22478;51.740;-1.314;2023-04-28T08:09:08;99716.63;;;4.58;100.00
36454;BME280;22478;51.740;-1.314;2023-04-28T08:11:35;99712.64;;;5.63;100.00
36454;BME280;22478;51.740;-1.314;2023-04-28T08:14:03;99705.61;;;7.53;100.00
36454;BME280;22478;51.740;-1.314;2023-04-28T08:16:30;99717.91;;;6.20;100.00
36454;BME280;22478;51.740;-1.314;2023-04-28T08:18:58;99718.05;;;6.34;100.00
36454;BME280;22478;51.740;-1.314;2023-04-28T08:21:25;99718.69;;;7.23;100.00
36454;BME280;22478;51.740;-1.314;2023-04-28T08:23:52;99714.51;;;7.90;100.00
36454;BME280;22478;51.740;-1.314;2023-04-28T08:26:20;99714.87;;;7.98;100.00
36454;BME280;22478;51.740;-1.314;2023-04-28T08:28:47;99720.50;;;6.71;100.00
36454;BME280;22478;51.740;-1.314;2023-04-28T08:31:14;99722.87;;;7.38;100.00
36454;BME280;22478;51.740;-1.314;2023-04-28T08:33:42;99727.07;;;6.74;100.00
36454;BME280;22478;51.740;-1.314;2023-04-28T08:36:09;99724.39;;;7.90;100.00
36454;BME280;22478;51.740;-1.314;2023-04-28T08:38:37;99735.43;;;7.49;100.00
36454;BME280;22478;51.740;-1.314;2023-04-28T08:41:05;99735.34;;;8.98;100.00
36454;BME280;22478;51.740;-1.314;2023-04-28T08:43:34;99740.13;;;6.44;100.00
36454;BME280;22478;51.740;-1.314;2023-04-28T08:46:05;99734.70;;;8.32;100.00
36454;BME280;22478;51.740;-1.314;2023-04-28T08:48:38;99736.47;;;8.60;100.00
36454;BME280;22478;51.740;-1.314;2023-04-28T08:51:07;99744.20;;;8.37;100.00
36454;BME280;22478;51.740;-1.314;2023-04-28T08:53:36;99742.24;;;9.68;100.00
36454;BME280;22478;51.740;-1.314;2023-04-28T08:56:05;99752.69;;;7.32;100.00
36454;BME280;22478;51.740;-1.314;2023-04-28T08:58:35;99756.98;;;8.16;100.00
36454;BME280;22478;51.740;-1.314;2023-04-28T09:01:02;99769.35;;;5.63;100.00
36454;BME280;22478;51.740;-1.314;2023-04-28T09:03:30;99763.86;;;7.13;100.00
36454;BME280;22478;51.740;-1.314;2023-04-28T09:05:58;99776.91;;;5.74;100.00
36454;BME280;22478;51.740;-1.314;2023-04-28T09:08:25;99777.87;;;6.44;100.00
36454;BME280;22478;51.740;-1.314;2023-04-28T09:11:05;99767.07;;;8.78;100.00
36454;BME280;22478;51.740;-1.314;2023-04-28T09:13:33;99780.01;;;7.01;100.00
36454;BME280;22478;51.740;-1.314;2023-04-28T09:16:02;99772.88;;;7.99;100.00
36454;BME280;22478;51.740;-1.314;2023-04-28T09:18:30;99775.22;;;8.17;100.00
36454;BME280;22478;51.740;-1.314;2023-04-28T09:21:06;99793.33;;;6.08;100.00
36454;BME280;22478;51.740;-1.314;2023-04-28T09:23:34;99787.58;;;7.31;100.00
36454;BME280;22478;51.740;-1.314;2023-04-28T09:26:03;99787.26;;;8.36;100.00
36454;BME280;22478;51.740;-1.314;2023-04-28T09:28:30;99792.59;;;7.54;100.00
36454;BME280;22478;51.740;-1.314;2023-04-28T09:30:58;99796.28;;;7.34;100.00
36454;BME280;22478;51.740;-1.314;2023-04-28T09:33:25;99791.99;;;8.26;100.00
36454;BME280;22478;51.740;-1.314;2023-04-28T09:35:53;99798.21;;;6.56;100.00
36454;BME280;22478;51.740;-1.314;2023-04-28T09:38:21;99804.49;;;6.71;100.00
36454;BME280;22478;51.740;-1.314;2023-04-28T09:40:51;99807.01;;;7.05;100.00
36454;BME280;22478;51.740;-1.314;2023-04-28T09:43:24;99801.14;;;7.57;100.00
36454;BME280;22478;51.740;-1.314;2023-04-28T09:45:52;99811.51;;;7.20;100.00
36454;BME280;22478;51.740;-1.314;2023-04-28T09:48:27;99811.91;;;5.81;100.00
36454;BME280;22478;51.740;-1.314;2023-04-28T09:50:54;99810.09;;;7.39;100.00
36454;BME280;22478;51.740;-1.314;2023-04-28T09:53:22;99803.23;;;8.20;100.00
36454;BME280;22478;51.740;-1.314;2023-04-28T09:55:51;99809.76;;;7.75;100.00
36454;BME280;22478;51.740;-1.314;2023-04-28T09:58:20;99807.84;;;8.31;100.00
36454;BME280;22478;51.740;-1.314;2023-04-28T10:00:52;99816.94;;;7.91;100.00
36454;BME280;22478;51.740;-1.314;2023-04-28T10:03:21;99805.73;;;10.61;100.00
36454;BME280;22478;51.740;-1.314;2023-04-28T10:05:49;99818.44;;;7.90;100.00
36454;BME280;22478;51.740;-1.314;2023-04-28T10:08:18;99816.57;;;6.78;100.00
36454;BME280;22478;51.740;-1.314;2023-04-28T10:10:45;99808.52;;;7.99;100.00
36454;BME280;22478;51.740;-1.314;2023-04-28T10:13:12;99825.36;;;6.78;100.00
36454;BME280;22478;51.740;-1.314;2023-04-28T10:15:40;99835.45;;;5.84;100.00
36454;BME280;22478;51.740;-1.314;2023-04-28T10:18:08;99836.71;;;7.86;100.00
36454;BME280;22478;51.740;-1.314;2023-04-28T10:20:38;99837.60;;;7.65;100.00
36454;BME280;22478;51.740;-1.314;2023-04-28T10:23:23;99828.36;;;8.64;100.00
36454;BME280;22478;51.740;-1.314;2023-04-28T10:25:56;99836.22;;;9.32;100.00
36454;BME280;22478;51.740;-1.314;2023-04-28T10:28:24;99836.73;;;11.45;100.00
36454;BME280;22478;51.740;-1.314;2023-04-28T10:31:24;99842.80;;;8.47;100.00
36454;BME280;22478;51.740;-1.314;2023-04-28T10:33:51;99845.76;;;8.87;100.00
36454;BME280;22478;51.740;-1.314;2023-04-28T10:36:51;99859.57;;;7.19;100.00
36454;BME280;22478;51.740;-1.314;2023-04-28T10:39:18;99862.34;;;7.52;100.00
36454;BME280;22478;51.740;-1.314;2023-04-28T10:41:46;99856.62;;;9.12;100.00
36454;BME280;22478;51.740;-1.314;2023-04-28T10:44:47;99864.23;;;7.94;100.00
36454;BME280;22478;51.740;-1.314;2023-04-28T10:47:14;99865.25;;;7.31;100.00
36454;BME280;22478;51.740;-1.314;2023-04-28T10:50:14;99865.23;;;7.58;100.00
36454;BME280;22478;51.740;-1.314;2023-04-28T10:52:50;99864.98;;;10.47;100.00
36454;BME280;22478;51.740;-1.314;2023-04-28T10:55:34;99868.25;;;10.30;100.00
36454;BME280;22478;51.740;-1.314;2023-04-28T10:58:34;99876.15;;;8.35;100.00
36454;BME280;22478;51.740;-1.314;2023-04-28T11:01:33;99879.76;;;10.04;100.00
36454;BME280;22478;51.740;-1.314;2023-04-28T11:04:06;99875.03;;;12.71;100.00
36454;BME280;22478;51.740;-1.314;2023-04-28T11:06:34;99854.30;;;16.53;100.00
36454;BME280;22478;51.740;-1.314;2023-04-28T11:12:04;99865.83;;;13.20;100.00
36454;BME280;22478;51.740;-1.314;2023-04-28T11:14:33;99874.33;;;11.73;100.00
36454;BME280;22478;51.740;-1.314;2023-04-28T11:17:02;99868.50;;;14.33;100.00
36454;BME280;22478;51.740;-1.314;2023-04-28T11:19:31;99875.30;;;11.05;100.00
36454;BME280;22478;51.740;-1.314;2023-04-28T11:21:59;99879.67;;;12.42;100.00
36454;BME280;22478;51.740;-1.314;2023-04-28T11:24:28;99877.15;;;11.25;100.00
36454;BME280;22478;51.740;-1.314;2023-04-28T11:26:57;99876.38;;;11.36;100.00
36454;BME280;22478;51.740;-1.314;2023-04-28T11:29:33;99870.17;;;12.64;100.00
36454;BME280;22478;51.740;-1.314;2023-04-28T11:32:02;99874.06;;;14.01;100.00
36454;BME280;22478;51.740;-1.314;2023-04-28T11:34:29;99876.57;;;12.83;100.00
36454;BME280;22478;51.740;-1.314;2023-04-28T11:36:57;99879.42;;;10.91;100.00
36454;BME280;22478;51.740;-1.314;2023-04-28T11:39:25;99875.22;;;13.23;100.00
36454;BME280;22478;51.740;-1.314;2023-04-28T11:41:53;99880.01;;;12.71;100.00
36454;BME280;22478;51.740;-1.314;2023-04-28T11:44:22;99893.34;;;9.41;100.00
36454;BME280;22478;51.740;-1.314;2023-04-28T11:46:52;99893.86;;;9.79;100.00
36454;BME280;22478;51.740;-1.314;2023-04-28T11:49:19;99890.89;;;11.42;100.00
36454;BME280;22478;51.740;-1.314;2023-04-28T11:51:47;99900.23;;;9.22;100.00
36454;BME280;22478;51.740;-1.314;2023-04-28T11:54:19;99904.03;;;9.95;100.00
36454;BME280;22478;51.740;-1.314;2023-04-28T11:56:47;99904.25;;;9.38;100.00
36454;BME280;22478;51.740;-1.314;2023-04-28T11:59:15;99897.66;;;10.82;100.00
36454;BME280;22478;51.740;-1.314;2023-04-28T12:01:45;99910.44;;;9.69;100.00
36454;BME280;22478;51.740;-1.314;2023-04-28T12:04:14;99897.82;;;12.06;100.00
36454;BME280;22478;51.740;-1.314;2023-04-28T12:07:00;99899.79;;;11.23;100.00
36454;BME280;22478;51.740;-1.314;2023-04-28T12:09:27;99904.79;;;11.92;100.00
36454;BME280;22478;51.740;-1.314;2023-04-28T12:11:56;99901.89;;;11.75;100.00
36454;BME280;22478;51.740;-1.314;2023-04-28T12:14:24;99909.85;;;10.43;100.00
36454;BME280;22478;51.740;-1.314;2023-04-28T12:16:52;99912.07;;;11.08;100.00
36454;BME280;22478;51.740;-1.314;2023-04-28T12:19:19;99914.04;;;11.83;100.00
36454;BME280;22478;51.740;-1.314;2023-04-28T12:22:04;99914.32;;;12.24;100.00
36454;BME280;22478;51.740;-1.314;2023-04-28T12:24:32;99926.90;;;9.92;100.00
36454;BME280;22478;51.740;-1.314;2023-04-28T12:27:32;99929.77;;;9.54;100.00
36454;BME280;22478;51.740;-1.314;2023-04-28T12:29:59;99925.28;;;11.50;100.00
36454;BME280;22478;51.740;-1.314;2023-04-28T12:32:37;99929.79;;;9.42;100.00
36454;BME280;22478;51.740;-1.314;2023-04-28T12:35:05;99932.51;;;8.95;100.00
36454;BME280;22478;51.740;-1.314;2023-04-28T12:37:33;99936.80;;;9.33;100.00
36454;BME280;22478;51.740;-1.314;2023-04-28T12:40:00;99935.92;;;10.65;100.00
36454;BME280;22478;51.740;-1.314;2023-04-28T12:42:27;99939.10;;;10.21;100.00
36454;BME280;22478;51.740;-1.314;2023-04-28T12:44:54;99947.66;;;8.34;100.00
36454;BME280;22478;51.740;-1.314;2023-04-28T12:47:21;99952.00;;;8.19;100.00
36454;BME280;22478;51.740;-1.314;2023-04-28T12:49:49;99958.23;;;9.04;100.00
36454;BME280;22478;51.740;-1.314;2023-04-28T12:52:17;99958.72;;;9.90;100.00
36454;BME280;22478;51.740;-1.314;2023-04-28T12:54:44;99968.15;;;8.83;100.00
36454;BME280;22478;51.740;-1.314;2023-04-28T12:57:12;99967.80;;;8.29;100.00